Time;durP1;ratioP1;P1;durP2;ratioP2;P2;SDS_P1;SDS_P2;PMS_P1;PMS_P2;Temp;Humidity;BMP_temperature;BMP_pressure;BME280_temperature;BME280_humidity;BME280_pressure;Samples;Min_cycle;Max_cycle;Signal;HPM_P1;HPM_P2
2024/01/29 00:01:22;;;;;;;4.43;4.03;;;;;;;;;;5054848;27;100159;-74
2024/01/29 00:03:49;;;;;;;5.30;4.72;;;;;;;;;;5057038;27;100801;-73
2024/01/29 00:06:16;;;;;;;4.93;4.40;;;;;;;;;;5058048;27;101923;-73
2024/01/29 00:08:42;;;;;;;4.38;4.03;;;;;;;;;;5055633;27;99416;-73
2024/01/29 00:11:09;;;;;;;8.57;3.88;;;;;;;;;;5055684;27;99950;-73
2024/01/29 00:13:35;;;;;;;3.92;3.63;;;;;;;;;;5054300;27;99449;-73
2024/01/29 00:16:02;;;;;;;4.18;3.85;;;;;;;;;;5058856;27;99865;-73
2024/01/29 00:18:29;;;;;;;5.72;4.65;;;;;;;;;;5059972;27;99945;-74
2024/01/29 00:20:57;;;;;;;6.47;4.40;;;;;;;;;;5052989;27;99473;-73
2024/01/29 00:23:23;;;;;;;4.43;4.03;;;;;;;;;;5054575;27;100195;-74
2024/01/29 00:25:50;;;;;;;4.00;3.70;;;;;;;;;;5056320;27;99676;-73
2024/01/29 00:28:17;;;;;;;4.85;3.38;;;;;;;;;;5056616;27;99450;-73
2024/01/29 00:30:43;;;;;;;4.65;4.22;;;;;;;;;;5057346;27;99263;-73
2024/01/29 00:33:10;;;;;;;8.55;4.40;;;;;;;;;;5062569;27;98339;-73
2024/01/29 00:35:37;;;;;;;4.35;3.97;;;;;;;;;;5059520;27;100018;-73
2024/01/29 00:38:04;;;;;;;4.82;4.13;;;;;;;;;;5056676;27;100068;-73
2024/01/29 00:40:32;;;;;;;4.78;4.40;;;;;;;;;;5062523;27;99444;-73
2024/01/29 00:42:59;;;;;;;7.47;5.05;;;;;;;;;;5059345;27;100313;-73
2024/01/29 00:45:26;;;;;;;5.00;4.38;;;;;;;;;;5056500;27;98994;-73
2024/01/29 00:47:53;;;;;;;4.15;3.80;;;;;;;;;;5057519;27;100092;-73
2024/01/29 00:50:19;;;;;;;7.88;4.60;;;;;;;;;;5057751;27;100035;-73
2024/01/29 00:52:46;;;;;;;7.05;4.40;;;;;;;;;;5058157;27;98922;-72
2024/01/29 00:55:12;;;;;;;8.55;4.45;;;;;;;;;;5059817;27;99908;-73
2024/01/29 00:57:39;;;;;;;5.75;4.57;;;;;;;;;;5058755;27;99623;-73
2024/01/29 01:00:09;;;;;;;4.20;3.88;;;;;;;;;;5058353;27;100030;-73
2024/01/29 01:02:35;;;;;;;7.90;4.05;;;;;;;;;;5061736;27;99904;-73
2024/01/29 01:05:03;;;;;;;6.45;4.60;;;;;;;;;;5056300;27;99788;-73
2024/01/29 01:07:29;;;;;;;5.30;4.72;;;;;;;;;;5061394;27;99775;-73
2024/01/29 01:09:56;;;;;;;4.70;4.30;;;;;;;;;;5057794;27;100033;-73
2024/01/29 01:12:22;;;;;;;5.88;4.88;;;;;;;;;;5061504;27;100049;-73
2024/01/29 01:14:49;;;;;;;6.68;4.95;;;;;;;;;;5059186;27;99775;-73
2024/01/29 01:17:15;;;;;;;4.47;4.15;;;;;;;;;;5055630;27;99783;-73
2024/01/29 01:19:42;;;;;;;4.80;4.40;;;;;;;;;;5058185;27;99435;-73
2024/01/29 01:22:09;;;;;;;5.28;4.78;;;;;;;;;;5057469;27;98966;-73
2024/01/29 01:24:35;;;;;;;5.82;4.28;;;;;;;;;;5062397;27;100081;-73
2024/01/29 01:27:03;;;;;;;9.32;5.20;;;;;;;;;;5058508;27;99218;-73
2024/01/29 01:29:29;;;;;;;5.53;4.60;;;;;;;;;;5056849;27;99915;-73
2024/01/29 01:31:55;;;;;;;5.93;4.75;;;;;;;;;;5058834;27;99005;-73
2024/01/29 01:34:22;;;;;;;4.63;4.20;;;;;;;;;;5057304;27;100018;-73
2024/01/29 01:36:49;;;;;;;6.85;4.90;;;;;;;;;;5056660;27;100014;-74
2024/01/29 01:39:15;;;;;;;4.70;4.05;;;;;;;;;;5056572;27;99445;-73
2024/01/29 01:41:49;;;;;;;6.43;4.70;;;;;;;;;;5058180;27;100013;-73
2024/01/29 01:44:16;;;;;;;6.10;4.63;;;;;;;;;;5061408;27;99928;-73
2024/01/29 01:46:42;;;;;;;4.95;4.38;;;;;;;;;;5059819;27;99395;-73
2024/01/29 01:49:08;;;;;;;9.15;5.03;;;;;;;;;;5056514;27;99990;-73
2024/01/29 01:51:35;;;;;;;7.28;5.55;;;;;;;;;;5057966;27;98386;-73
2024/01/29 01:54:02;;;;;;;5.60;5.10;;;;;;;;;;5058576;27;100204;-73
2024/01/29 01:56:29;;;;;;;6.20;4.88;;;;;;;;;;5060562;27;101816;-73
2024/01/29 01:58:59;;;;;;;5.50;4.97;;;;;;;;;;5054830;27;100075;-75
2024/01/29 02:01:26;;;;;;;5.35;4.90;;;;;;;;;;5059504;27;99494;-73
2024/01/29 02:03:52;;;;;;;7.35;4.90;;;;;;;;;;5058086;27;100070;-73
2024/01/29 02:06:19;;;;;;;5.30;4.82;;;;;;;;;;5058587;27;99855;-72
2024/01/29 02:08:46;;;;;;;5.18;4.68;;;;;;;;;;5055298;27;99903;-73
2024/01/29 02:11:12;;;;;;;6.75;4.75;;;;;;;;;;5058741;27;99443;-73
2024/01/29 02:13:38;;;;;;;7.00;5.00;;;;;;;;;;5057064;27;99310;-73
2024/01/29 02:16:05;;;;;;;5.28;4.80;;;;;;;;;;5056874;27;100375;-73
2024/01/29 02:18:33;;;;;;;5.05;4.57;;;;;;;;;;5057077;27;99035;-73
2024/01/29 02:21:00;;;;;;;10.35;5.95;;;;;;;;;;5055834;27;99409;-74
2024/01/29 02:23:26;;;;;;;7.15;5.68;;;;;;;;;;5058195;27;100183;-74
2024/01/29 02:25:52;;;;;;;11.85;5.63;;;;;;;;;;5056743;27;98467;-73
2024/01/29 02:28:19;;;;;;;5.63;5.13;;;;;;;;;;5059232;27;100244;-73
2024/01/29 02:30:45;;;;;;;6.35;5.60;;;;;;;;;;5059129;27;99799;-73
2024/01/29 02:33:12;;;;;;;8.88;5.82;;;;;;;;;;5053724;27;99487;-73
2024/01/29 02:35:38;;;;;;;5.03;4.63;;;;;;;;;;5061294;27;100212;-74
2024/01/29 02:38:05;;;;;;;5.57;5.03;;;;;;;;;;5057748;27;99730;-73
2024/01/29 02:40:31;;;;;;;7.93;5.60;;;;;;;;;;5058335;27;98753;-73
2024/01/29 02:42:58;;;;;;;11.73;5.82;;;;;;;;;;5059482;27;99613;-73
2024/01/29 02:45:24;;;;;;;14.25;5.95;;;;;;;;;;5056984;27;99002;-73
2024/01/29 02:47:51;;;;;;;6.00;5.35;;;;;;;;;;5056236;27;99824;-73
2024/01/29 02:50:17;;;;;;;6.88;5.00;;;;;;;;;;5063009;27;100256;-73
2024/01/29 02:52:44;;;;;;;10.20;5.15;;;;;;;;;;5057113;27;100094;-73
2024/01/29 02:55:10;;;;;;;6.82;5.03;;;;;;;;;;5056124;27;99010;-73
2024/01/29 02:57:37;;;;;;;6.70;5.13;;;;;;;;;;5058531;27;99097;-73
2024/01/29 03:00:04;;;;;;;5.40;4.88;;;;;;;;;;5059324;27;100183;-73
2024/01/29 03:02:31;;;;;;;6.57;5.32;;;;;;;;;;5054853;27;100316;-73
2024/01/29 03:04:57;;;;;;;6.50;4.95;;;;;;;;;;5056979;27;98356;-73
2024/01/29 03:07:24;;;;;;;5.38;4.93;;;;;;;;;;5058286;27;99466;-73
2024/01/29 03:09:50;;;;;;;6.07;5.05;;;;;;;;;;5054339;27;100619;-73
2024/01/29 03:12:17;;;;;;;8.15;4.85;;;;;;;;;;5057820;27;98282;-73
2024/01/29 03:14:43;;;;;;;6.78;4.78;;;;;;;;;;5053985;27;99896;-73
2024/01/29 03:17:10;;;;;;;6.28;5.70;;;;;;;;;;5057421;27;99610;-73
2024/01/29 03:19:36;;;;;;;6.32;5.22;;;;;;;;;;5055225;27;98641;-73
2024/01/29 03:22:04;;;;;;;6.05;5.03;;;;;;;;;;5057450;27;99983;-73
2024/01/29 03:24:30;;;;;;;5.78;5.20;;;;;;;;;;5058455;27;99894;-73
2024/01/29 03:26:57;;;;;;;6.68;5.57;;;;;;;;;;5057302;27;99532;-73
2024/01/29 03:29:23;;;;;;;6.75;5.65;;;;;;;;;;5054880;27;100677;-74
2024/01/29 03:31:50;;;;;;;5.30;4.80;;;;;;;;;;5057751;27;99215;-73
2024/01/29 03:34:16;;;;;;;8.93;5.70;;;;;;;;;;5058328;27;99836;-73
2024/01/29 03:36:44;;;;;;;5.85;4.88;;;;;;;;;;5053911;27;99521;-73
2024/01/29 03:39:11;;;;;;;5.97;4.30;;;;;;;;;;5056084;27;99476;-73
2024/01/29 03:41:37;;;;;;;5.78;5.22;;;;;;;;;;5055270;27;99954;-73
2024/01/29 03:44:04;;;;;;;5.53;5.07;;;;;;;;;;5052826;27;99974;-73
2024/01/29 03:46:30;;;;;;;7.70;4.85;;;;;;;;;;5057075;27;99293;-73
2024/01/29 03:48:57;;;;;;;5.35;4.70;;;;;;;;;;5054025;27;100155;-73
2024/01/29 03:51:23;;;;;;;9.90;5.38;;;;;;;;;;5056741;27;98279;-73
2024/01/29 03:53:50;;;;;;;10.10;5.53;;;;;;;;;;5057861;27;100088;-73
2024/01/29 03:56:17;;;;;;;6.22;5.30;;;;;;;;;;5056963;27;100153;-73
2024/01/29 03:58:43;;;;;;;6.20;5.63;;;;;;;;;;5054809;27;99573;-74
2024/01/29 04:01:10;;;;;;;6.18;4.90;;;;;;;;;;5052770;27;101724;-74
2024/01/29 04:03:39;;;;;;;6.63;5.18;;;;;;;;;;5057031;27;100181;-73
2024/01/29 04:06:07;;;;;;;7.80;5.75;;;;;;;;;;5057600;27;99617;-74
2024/01/29 04:08:34;;;;;;;6.97;6.10;;;;;;;;;;5057713;27;99980;-73
2024/01/29 04:11:00;;;;;;;12.88;6.03;;;;;;;;;;5059965;27;99332;-74
2024/01/29 04:13:27;;;;;;;10.88;5.00;;;;;;;;;;5058539;27;100799;-74
2024/01/29 04:15:53;;;;;;;7.55;6.05;;;;;;;;;;5061483;27;99998;-73
2024/01/29 04:18:20;;;;;;;5.45;4.78;;;;;;;;;;5057762;27;99674;-74
2024/01/29 04:20:48;;;;;;;6.93;5.30;;;;;;;;;;5058297;27;99070;-72
2024/01/29 04:23:15;;;;;;;8.43;5.85;;;;;;;;;;5061913;27;98249;-73
2024/01/29 04:25:41;;;;;;;5.53;5.03;;;;;;;;;;5058913;27;99364;-73
2024/01/29 04:28:08;;;;;;;7.70;5.95;;;;;;;;;;5057633;27;100367;-73
2024/01/29 04:30:34;;;;;;;6.20;5.63;;;;;;;;;;5061409;27;100402;-73
2024/01/29 04:33:01;;;;;;;5.75;5.25;;;;;;;;;;5055317;27;100118;-73
2024/01/29 04:35:28;;;;;;;5.47;4.80;;;;;;;;;;5056624;27;99899;-73
2024/01/29 04:37:54;;;;;;;6.65;5.97;;;;;;;;;;5063244;27;98347;-74
2024/01/29 04:40:22;;;;;;;5.95;5.55;;;;;;;;;;5056409;27;100500;-74
2024/01/29 04:42:49;;;;;;;5.63;5.18;;;;;;;;;;5060058;27;99774;-73
2024/01/29 04:45:16;;;;;;;5.70;5.20;;;;;;;;;;5057621;27;100029;-74
2024/01/29 04:47:43;;;;;;;9.15;6.15;;;;;;;;;;5056147;27;100047;-74
2024/01/29 04:50:09;;;;;;;10.20;5.55;;;;;;;;;;5059145;27;98899;-74
2024/01/29 04:52:36;;;;;;;11.18;5.47;;;;;;;;;;5060484;27;99359;-73
2024/01/29 04:55:02;;;;;;;10.60;5.15;;;;;;;;;;5058615;27;99839;-74
2024/01/29 04:57:31;;;;;;;5.72;5.18;;;;;;;;;;5060712;27;99825;-73
2024/01/29 04:59:57;;;;;;;6.55;5.93;;;;;;;;;;5064367;27;99522;-74
2024/01/29 05:02:24;;;;;;;7.47;5.75;;;;;;;;;;5059101;27;99625;-74
2024/01/29 05:04:50;;;;;;;6.22;5.60;;;;;;;;;;5057553;27;99051;-74
2024/01/29 05:07:17;;;;;;;6.80;6.00;;;;;;;;;;5059417;27;99865;-74
2024/01/29 05:09:44;;;;;;;5.57;5.05;;;;;;;;;;5059068;27;100052;-74
2024/01/29 05:12:10;;;;;;;7.00;5.72;;;;;;;;;;5059263;27;99367;-74
2024/01/29 05:14:36;;;;;;;7.95;5.75;;;;;;;;;;5056961;27;100107;-74
2024/01/29 05:17:03;;;;;;;9.00;6.60;;;;;;;;;;5060034;27;99507;-74
2024/01/29 05:19:29;;;;;;;7.45;5.95;;;;;;;;;;5058331;27;100260;-74
2024/01/29 05:21:56;;;;;;;6.05;5.40;;;;;;;;;;5063560;27;100141;-74
2024/01/29 05:24:24;;;;;;;5.85;5.35;;;;;;;;;;5055345;27;99019;-74
2024/01/29 05:26:51;;;;;;;6.07;5.47;;;;;;;;;;5059455;27;100563;-74
2024/01/29 05:29:17;;;;;;;7.80;5.55;;;;;;;;;;5059412;27;98357;-73
2024/01/29 05:31:44;;;;;;;6.85;6.03;;;;;;;;;;5061074;27;100508;-73
2024/01/29 05:34:10;;;;;;;7.43;6.40;;;;;;;;;;5059666;27;99232;-73
2024/01/29 05:36:37;;;;;;;6.97;5.72;;;;;;;;;;5060845;27;99599;-73
2024/01/29 05:39:04;;;;;;;11.50;5.70;;;;;;;;;;5061013;27;99767;-73
2024/01/29 05:41:30;;;;;;;6.22;5.70;;;;;;;;;;5060172;27;99970;-73
2024/01/29 05:43:58;;;;;;;7.50;6.45;;;;;;;;;;5062060;27;98628;-73
2024/01/29 05:46:24;;;;;;;8.63;6.47;;;;;;;;;;5060667;27;99622;-72
2024/01/29 05:48:51;;;;;;;5.97;5.43;;;;;;;;;;5061606;27;99498;-73
2024/01/29 05:51:19;;;;;;;8.80;5.78;;;;;;;;;;5059607;27;99475;-73
2024/01/29 05:53:46;;;;;;;8.85;6.45;;;;;;;;;;5061357;27;99915;-74
2024/01/29 05:56:12;;;;;;;5.80;5.28;;;;;;;;;;5058600;27;99033;-73
2024/01/29 05:58:42;;;;;;;6.90;5.95;;;;;;;;;;5058871;27;100276;-73
2024/01/29 06:01:08;;;;;;;5.95;5.32;;;;;;;;;;5055816;27;99349;-73
2024/01/29 06:03:35;;;;;;;8.40;5.57;;;;;;;;;;5062954;27;98992;-73
2024/01/29 06:06:01;;;;;;;7.47;5.70;;;;;;;;;;5055768;27;100065;-73
2024/01/29 06:08:28;;;;;;;9.10;6.35;;;;;;;;;;5059724;27;100043;-73
2024/01/29 06:10:55;;;;;;;7.72;6.03;;;;;;;;;;5057139;27;99363;-73
2024/01/29 06:13:23;;;;;;;6.95;5.45;;;;;;;;;;5058035;27;100164;-73
2024/01/29 06:15:50;;;;;;;5.93;5.30;;;;;;;;;;5057334;27;99408;-73
2024/01/29 06:18:16;;;;;;;5.22;4.70;;;;;;;;;;5057223;27;100091;-73
2024/01/29 06:20:43;;;;;;;10.27;6.32;;;;;;;;;;5057737;27;100175;-73
2024/01/29 06:23:12;;;;;;;6.32;5.68;;;;;;;;;;5056210;27;99875;-73
2024/01/29 06:25:38;;;;;;;5.38;4.88;;;;;;;;;;5058264;27;98607;-73
2024/01/29 06:28:06;;;;;;;6.53;5.88;;;;;;;;;;5056425;27;99386;-73
2024/01/29 06:30:33;;;;;;;6.78;5.78;;;;;;;;;;5055580;27;99369;-73
2024/01/29 06:33:00;;;;;;;7.10;5.40;;;;;;;;;;5054218;27;99848;-73
2024/01/29 06:35:26;;;;;;;9.73;6.07;;;;;;;;;;5056968;27;98827;-73
2024/01/29 06:37:53;;;;;;;6.80;5.35;;;;;;;;;;5059951;27;99414;-73
2024/01/29 06:40:26;;;;;;;10.13;6.55;;;;;;;;;;5059132;27;100051;-73
2024/01/29 06:42:56;;;;;;;7.45;6.38;;;;;;;;;;5062166;27;98787;-73
2024/01/29 06:45:23;;;;;;;6.57;5.85;;;;;;;;;;5066490;27;99756;-73
2024/01/29 06:47:49;;;;;;;7.30;5.68;;;;;;;;;;5068912;27;100244;-73
2024/01/29 06:50:16;;;;;;;6.95;5.40;;;;;;;;;;5065878;27;98587;-72
2024/01/29 06:52:43;;;;;;;11.32;5.65;;;;;;;;;;5065045;27;99771;-72
2024/01/29 06:55:10;;;;;;;10.48;6.38;;;;;;;;;;5055027;27;98687;-73
2024/01/29 06:57:36;;;;;;;9.88;6.03;;;;;;;;;;5061429;27;98491;-76
2024/01/29 07:00:03;;;;;;;7.57;6.50;;;;;;;;;;5057486;27;100100;-76
2024/01/29 07:02:30;;;;;;;6.07;5.38;;;;;;;;;;5059396;27;98977;-73
2024/01/29 07:04:56;;;;;;;6.63;5.75;;;;;;;;;;5056918;27;99566;-76
2024/01/29 07:07:23;;;;;;;8.20;5.65;;;;;;;;;;5057634;27;99613;-75
2024/01/29 07:09:52;;;;;;;7.72;6.55;;;;;;;;;;5064634;27;98737;-76
2024/01/29 07:12:19;;;;;;;6.55;5.90;;;;;;;;;;5059155;27;100193;-75
2024/01/29 07:14:45;;;;;;;9.00;6.32;;;;;;;;;;5057002;27;100299;-76
2024/01/29 07:17:12;;;;;;;10.77;5.57;;;;;;;;;;5059070;27;99655;-77
2024/01/29 07:19:38;;;;;;;8.02;5.85;;;;;;;;;;5060043;27;99090;-75
2024/01/29 07:22:08;;;;;;;6.90;6.20;;;;;;;;;;5056150;27;98357;-75
2024/01/29 07:24:35;;;;;;;9.43;5.97;;;;;;;;;;5059053;27;99633;-75
2024/01/29 07:27:01;;;;;;;8.07;6.25;;;;;;;;;;5055858;27;99900;-76
2024/01/29 07:29:29;;;;;;;8.48;6.00;;;;;;;;;;5061904;27;98873;-74
2024/01/29 07:31:56;;;;;;;7.43;6.72;;;;;;;;;;5067080;27;99392;-75
2024/01/29 07:34:23;;;;;;;9.90;6.65;;;;;;;;;;5066282;27;98904;-75
2024/01/29 07:36:50;;;;;;;6.95;5.65;;;;;;;;;;5065465;27;99403;-75
2024/01/29 07:39:16;;;;;;;8.52;6.13;;;;;;;;;;5068600;27;99858;-75
2024/01/29 07:41:43;;;;;;;7.40;5.72;;;;;;;;;;5068004;27;98261;-75
2024/01/29 07:44:09;;;;;;;6.28;5.68;;;;;;;;;;5068078;27;100370;-75
2024/01/29 07:46:35;;;;;;;7.05;6.22;;;;;;;;;;5069338;27;99918;-75
2024/01/29 07:49:03;;;;;;;6.53;5.65;;;;;;;;;;5068526;27;98234;-76
2024/01/29 07:51:30;;;;;;;8.20;5.97;;;;;;;;;;5067883;27;99322;-76
2024/01/29 07:53:56;;;;;;;7.38;5.68;;;;;;;;;;5069228;27;98818;-75
2024/01/29 07:56:23;;;;;;;12.60;6.50;;;;;;;;;;5068650;27;99371;-75
2024/01/29 07:58:49;;;;;;;10.30;5.50;;;;;;;;;;5068894;27;99643;-75
2024/01/29 08:01:16;;;;;;;8.35;6.35;;;;;;;;;;5069252;27;98558;-75
2024/01/29 08:03:43;;;;;;;11.27;6.75;;;;;;;;;;5067747;27;98527;-75
2024/01/29 08:06:11;;;;;;;7.63;5.95;;;;;;;;;;5067317;27;99862;-75
2024/01/29 08:08:38;;;;;;;6.03;5.47;;;;;;;;;;5069315;27;98561;-76
2024/01/29 08:11:04;;;;;;;6.97;5.85;;;;;;;;;;5067738;27;99422;-75
2024/01/29 08:13:30;;;;;;;13.75;5.88;;;;;;;;;;5071874;27;99839;-75
2024/01/29 08:15:59;;;;;;;8.85;6.35;;;;;;;;;;5068378;27;98712;-76
2024/01/29 08:18:25;;;;;;;7.43;5.47;;;;;;;;;;5067266;27;98868;-76
2024/01/29 08:20:52;;;;;;;7.75;6.45;;;;;;;;;;5068720;27;98876;-76
2024/01/29 08:23:19;;;;;;;11.48;6.20;;;;;;;;;;5068745;27;99396;-75
2024/01/29 08:25:45;;;;;;;7.82;6.45;;;;;;;;;;5067627;27;99177;-75
2024/01/29 08:28:12;;;;;;;8.75;6.30;;;;;;;;;;5068587;27;98322;-75
2024/01/29 08:30:38;;;;;;;9.73;6.25;;;;;;;;;;5067884;27;99752;-75
2024/01/29 08:33:05;;;;;;;6.70;6.18;;;;;;;;;;5066958;27;99011;-75
2024/01/29 08:35:31;;;;;;;7.28;6.00;;;;;;;;;;5072332;27;98874;-75
2024/01/29 08:37:58;;;;;;;6.20;5.60;;;;;;;;;;5067319;27;98941;-75
2024/01/29 08:40:25;;;;;;;7.95;6.50;;;;;;;;;;5066965;27;98293;-75
2024/01/29 08:42:51;;;;;;;6.68;5.95;;;;;;;;;;5068712;27;99384;-74
2024/01/29 08:45:18;;;;;;;7.63;6.85;;;;;;;;;;5068385;27;100026;-74
2024/01/29 08:47:44;;;;;;;7.28;5.88;;;;;;;;;;5060114;27;98373;-75
2024/01/29 08:50:11;;;;;;;6.05;5.55;;;;;;;;;;5061147;27;98969;-74
2024/01/29 08:52:39;;;;;;;9.25;5.55;;;;;;;;;;5067077;27;99884;-75
2024/01/29 08:55:07;;;;;;;7.78;5.90;;;;;;;;;;5066996;27;98061;-74
2024/01/29 08:57:33;;;;;;;11.48;5.75;;;;;;;;;;5069648;27;99628;-74
2024/01/29 09:00:00;;;;;;;6.45;5.70;;;;;;;;;;5067102;27;98769;-75
2024/01/29 09:02:27;;;;;;;13.13;6.07;;;;;;;;;;5068342;27;99815;-74
2024/01/29 09:04:54;;;;;;;6.80;6.13;;;;;;;;;;5068297;27;99923;-75
2024/01/29 09:07:20;;;;;;;9.18;5.80;;;;;;;;;;5067404;27;98280;-74
2024/01/29 09:09:47;;;;;;;9.60;6.60;;;;;;;;;;5068364;27;99409;-74
2024/01/29 09:12:13;;;;;;;8.95;6.30;;;;;;;;;;5067897;27;100092;-74
2024/01/29 09:14:40;;;;;;;6.22;5.55;;;;;;;;;;5066734;27;98310;-74
2024/01/29 09:17:06;;;;;;;8.48;6.20;;;;;;;;;;5066689;27;98681;-75
2024/01/29 09:19:33;;;;;;;6.20;5.70;;;;;;;;;;5070707;27;100519;-74
2024/01/29 09:21:59;;;;;;;6.68;6.00;;;;;;;;;;5066431;27;98598;-74
2024/01/29 09:24:26;;;;;;;9.65;6.78;;;;;;;;;;5067311;27;99030;-76
2024/01/29 09:26:55;;;;;;;7.65;6.00;;;;;;;;;;5068048;27;98289;-75
2024/01/29 09:29:23;;;;;;;6.70;6.10;;;;;;;;;;5066251;27;98866;-75
2024/01/29 09:31:49;;;;;;;6.47;5.88;;;;;;;;;;5067709;27;100180;-74
2024/01/29 09:34:16;;;;;;;6.65;5.55;;;;;;;;;;5067725;27;98980;-75
2024/01/29 09:36:43;;;;;;;6.45;5.85;;;;;;;;;;5066633;27;98482;-74
2024/01/29 09:39:09;;;;;;;7.90;6.82;;;;;;;;;;5067409;27;100388;-75
2024/01/29 09:41:38;;;;;;;14.43;7.28;;;;;;;;;;5069003;27;99332;-74
2024/01/29 09:44:05;;;;;;;7.88;7.07;;;;;;;;;;5065318;27;99738;-74
2024/01/29 09:46:39;;;;;;;8.30;6.40;;;;;;;;;;5067608;27;98187;-75
2024/01/29 09:49:06;;;;;;;8.23;6.47;;;;;;;;;;5066826;27;99626;-74
2024/01/29 09:51:33;;;;;;;6.82;6.20;;;;;;;;;;5066964;27;99803;-74
2024/01/29 09:54:01;;;;;;;6.93;6.32;;;;;;;;;;5067272;27;98302;-75
2024/01/29 09:56:28;;;;;;;10.20;6.82;;;;;;;;;;5066226;27;98519;-77
2024/01/29 09:58:55;;;;;;;12.10;7.45;;;;;;;;;;5067366;27;99834;-75
2024/01/29 10:01:22;;;;;;;7.60;6.30;;;;;;;;;;5070626;27;98275;-74
2024/01/29 10:03:49;;;;;;;8.82;7.03;;;;;;;;;;5066851;27;99948;-75
2024/01/29 10:06:16;;;;;;;7.38;6.68;;;;;;;;;;5067298;27;98183;-75
2024/01/29 10:08:46;;;;;;;10.05;6.80;;;;;;;;;;5064601;27;99850;-75
2024/01/29 10:11:13;;;;;;;8.70;6.93;;;;;;;;;;5064790;27;99044;-76
2024/01/29 10:13:40;;;;;;;11.63;7.53;;;;;;;;;;5067431;27;98544;-76
2024/01/29 10:16:06;;;;;;;8.57;6.68;;;;;;;;;;5065226;27;99669;-76
2024/01/29 10:18:33;;;;;;;8.00;6.03;;;;;;;;;;5066113;27;99918;-76
2024/01/29 10:21:04;;;;;;;7.75;6.32;;;;;;;;;;5066714;27;98279;-76
2024/01/29 10:23:30;;;;;;;8.82;6.82;;;;;;;;;;5070188;27;99502;-76
2024/01/29 10:25:57;;;;;;;14.32;7.82;;;;;;;;;;5066743;27;98393;-76
2024/01/29 10:28:26;;;;;;;9.23;7.63;;;;;;;;;;5068047;27;99794;-76
2024/01/29 10:30:54;;;;;;;8.95;7.18;;;;;;;;;;5064238;27;99331;-76
2024/01/29 10:33:21;;;;;;;10.10;6.82;;;;;;;;;;5065401;27;98234;-76
2024/01/29 10:35:49;;;;;;;7.55;6.60;;;;;;;;;;5066871;27;99421;-76
2024/01/29 10:38:18;;;;;;;10.25;6.88;;;;;;;;;;5065264;27;98917;-79
2024/01/29 10:40:45;;;;;;;11.02;7.47;;;;;;;;;;5068351;27;98243;-72
2024/01/29 10:43:19;;;;;;;9.07;6.82;;;;;;;;;;5066470;27;99318;-75
2024/01/29 10:45:47;;;;;;;10.20;7.32;;;;;;;;;;5068583;27;99178;-75
2024/01/29 10:48:20;;;;;;;12.70;7.93;;;;;;;;;;5066248;27;98628;-74
2024/01/29 10:50:47;;;;;;;9.65;7.07;;;;;;;;;;5065929;27;98880;-75
2024/01/29 10:53:16;;;;;;;9.00;7.35;;;;;;;;;;5065656;27;98427;-75
2024/01/29 10:55:49;;;;;;;18.73;7.70;;;;;;;;;;5066991;27;99383;-74
2024/01/29 10:58:16;;;;;;;9.98;8.38;;;;;;;;;;5066190;27;99944;-74
2024/01/29 11:00:44;;;;;;;9.70;6.88;;;;;;;;;;5065764;27;98684;-74
2024/01/29 11:03:11;;;;;;;8.48;7.45;;;;;;;;;;5066579;27;99357;-76
2024/01/29 11:05:39;;;;;;;11.55;7.00;;;;;;;;;;5057741;27;98906;-74
2024/01/29 11:08:08;;;;;;;7.50;6.47;;;;;;;;;;5047958;27;98411;-75
2024/01/29 11:10:34;;;;;;;10.52;7.88;;;;;;;;;;5045784;27;99949;-74
2024/01/29 11:13:02;;;;;;;7.90;7.10;;;;;;;;;;5045571;27;98220;-75
2024/01/29 11:15:29;;;;;;;9.93;7.60;;;;;;;;;;5060784;27;99800;-75
2024/01/29 11:17:57;;;;;;;8.52;6.85;;;;;;;;;;5065078;27;99015;-74
2024/01/29 11:20:23;;;;;;;10.32;7.55;;;;;;;;;;5065446;27;98988;-74
2024/01/29 11:22:51;;;;;;;11.48;7.70;;;;;;;;;;5064982;27;98508;-74
2024/01/29 11:25:18;;;;;;;12.52;8.32;;;;;;;;;;5065825;27;99985;-74
2024/01/29 11:27:45;;;;;;;11.93;7.15;;;;;;;;;;5077636;27;98239;-74
2024/01/29 11:30:12;;;;;;;9.38;8.38;;;;;;;;;;5089009;27;98124;-74
2024/01/29 11:32:40;;;;;;;9.07;7.60;;;;;;;;;;5086659;27;98275;-74
2024/01/29 11:35:11;;;;;;;8.38;7.50;;;;;;;;;;5084443;27;98884;-74
2024/01/29 11:37:37;;;;;;;7.70;6.93;;;;;;;;;;5085830;27;99896;-74
2024/01/29 11:40:05;;;;;;;10.38;8.15;;;;;;;;;;5086071;27;98434;-74
2024/01/29 11:42:31;;;;;;;12.00;8.48;;;;;;;;;;5085528;27;99271;-74
2024/01/29 11:44:59;;;;;;;14.10;8.15;;;;;;;;;;5075180;27;99961;-75
2024/01/29 11:47:25;;;;;;;9.63;7.90;;;;;;;;;;5064441;27;98039;-74
2024/01/29 11:49:52;;;;;;;10.50;7.65;;;;;;;;;;5065090;27;100229;-74
2024/01/29 11:52:18;;;;;;;20.42;8.23;;;;;;;;;;5068741;27;100029;-75
2024/01/29 11:54:45;;;;;;;9.60;8.63;;;;;;;;;;5066184;27;99398;-74
2024/01/29 11:57:11;;;;;;;15.95;7.78;;;;;;;;;;5063761;27;99172;-74
2024/01/29 11:59:45;;;;;;;9.55;7.95;;;;;;;;;;5065685;27;98296;-74
2024/01/29 12:02:11;;;;;;;14.80;7.85;;;;;;;;;;5065363;27;99415;-74
2024/01/29 12:04:38;;;;;;;12.45;8.77;;;;;;;;;;5064904;27;99914;-73
2024/01/29 12:07:05;;;;;;;10.77;7.25;;;;;;;;;;5065727;27;98851;-73
2024/01/29 12:09:35;;;;;;;13.02;8.43;;;;;;;;;;5065265;27;99419;-73
2024/01/29 12:12:02;;;;;;;15.73;8.85;;;;;;;;;;5067627;27;99951;-74
2024/01/29 12:14:28;;;;;;;13.38;8.93;;;;;;;;;;5065452;27;99914;-74
2024/01/29 12:16:55;;;;;;;12.60;8.77;;;;;;;;;;5063430;27;100064;-73
2024/01/29 12:19:23;;;;;;;19.42;9.50;;;;;;;;;;5065719;27;98377;-73
2024/01/29 12:21:49;;;;;;;11.63;8.73;;;;;;;;;;5065626;27;99305;-73
2024/01/29 12:24:19;;;;;;;9.38;8.38;;;;;;;;;;5063671;27;99069;-73
2024/01/29 12:26:45;;;;;;;9.68;8.48;;;;;;;;;;5068850;27;98299;-73
2024/01/29 12:29:12;;;;;;;10.60;8.80;;;;;;;;;;5068681;27;99287;-73
2024/01/29 12:31:38;;;;;;;14.32;8.95;;;;;;;;;;5067893;27;100008;-73
2024/01/29 12:34:08;;;;;;;11.05;8.90;;;;;;;;;;5072096;27;98332;-71
2024/01/29 12:36:34;;;;;;;16.83;8.40;;;;;;;;;;5067366;27;100004;-74
2024/01/29 12:39:01;;;;;;;11.27;8.70;;;;;;;;;;5068295;27;98860;-74
2024/01/29 12:41:34;;;;;;;24.25;8.68;;;;;;;;;;5067225;27;99907;-74
2024/01/29 12:44:10;;;;;;;14.07;9.02;;;;;;;;;;5067694;27;100090;-74
2024/01/29 12:46:37;;;;;;;11.40;7.75;;;;;;;;;;5067414;27;98283;-74
2024/01/29 12:49:07;;;;;;;11.57;8.27;;;;;;;;;;5068419;27;99295;-74
2024/01/29 12:51:34;;;;;;;12.18;8.18;;;;;;;;;;5067694;27;99262;-73
2024/01/29 12:54:00;;;;;;;16.08;8.27;;;;;;;;;;5067675;27;98812;-73
2024/01/29 12:56:29;;;;;;;11.80;8.07;;;;;;;;;;5070940;27;98335;-74
2024/01/29 12:58:56;;;;;;;11.57;8.13;;;;;;;;;;5066936;27;98285;-74
2024/01/29 13:01:23;;;;;;;10.70;8.05;;;;;;;;;;5067817;27;99491;-74
2024/01/29 13:03:50;;;;;;;11.48;8.20;;;;;;;;;;5068061;27;100181;-73
2024/01/29 13:06:17;;;;;;;12.02;7.85;;;;;;;;;;5066549;27;98336;-73
2024/01/29 13:08:43;;;;;;;10.75;7.30;;;;;;;;;;5068302;27;99354;-74
2024/01/29 13:11:10;;;;;;;8.55;7.35;;;;;;;;;;5067701;27;100160;-74
2024/01/29 13:13:36;;;;;;;15.38;8.35;;;;;;;;;;5067122;27;98201;-76
2024/01/29 13:16:03;;;;;;;11.20;7.90;;;;;;;;;;5067347;27;98625;-74
2024/01/29 13:18:30;;;;;;;11.15;8.30;;;;;;;;;;5071297;27;100113;-73
2024/01/29 13:20:56;;;;;;;13.65;8.40;;;;;;;;;;5066463;27;98669;-74
2024/01/29 13:23:23;;;;;;;13.45;8.25;;;;;;;;;;5068016;27;99984;-73
2024/01/29 13:25:50;;;;;;;12.63;8.25;;;;;;;;;;5066738;27;98295;-75
2024/01/29 13:28:16;;;;;;;12.88;8.40;;;;;;;;;;5065938;27;99554;-73
2024/01/29 13:30:43;;;;;;;8.93;8.02;;;;;;;;;;5067794;27;100007;-73
2024/01/29 13:33:10;;;;;;;12.43;8.20;;;;;;;;;;5067719;27;98871;-73
2024/01/29 13:35:37;;;;;;;12.57;7.80;;;;;;;;;;5066785;27;100090;-73
2024/01/29 13:38:03;;;;;;;12.43;8.45;;;;;;;;;;5067275;27;99883;-73
2024/01/29 13:40:30;;;;;;;14.35;8.45;;;;;;;;;;5071226;27;98783;-73
2024/01/29 13:42:57;;;;;;;13.10;8.60;;;;;;;;;;5066501;27;99171;-75
2024/01/29 13:45:23;;;;;;;11.32;8.07;;;;;;;;;;5067620;27;98266;-73
2024/01/29 13:47:52;;;;;;;12.43;8.50;;;;;;;;;;5067800;27;99825;-74
2024/01/29 13:50:19;;;;;;;13.48;8.35;;;;;;;;;;5065404;27;98935;-73
2024/01/29 13:52:46;;;;;;;12.23;9.18;;;;;;;;;;5067418;27;98974;-74
2024/01/29 13:55:13;;;;;;;13.10;9.40;;;;;;;;;;5064730;27;99438;-76
2024/01/29 13:57:39;;;;;;;13.50;10.07;;;;;;;;;;5067602;27;100021;-74
2024/01/29 14:00:09;;;;;;;14.63;9.00;;;;;;;;;;5067460;27;98235;-74
2024/01/29 14:02:35;;;;;;;10.55;8.25;;;;;;;;;;5069213;27;98491;-73
2024/01/29 14:05:04;;;;;;;10.77;9.25;;;;;;;;;;5067063;27;98297;-75
2024/01/29 14:07:32;;;;;;;12.68;8.90;;;;;;;;;;5067721;27;99839;-75
2024/01/29 14:09:58;;;;;;;10.70;8.60;;;;;;;;;;5066355;27;100541;-74
2024/01/29 14:12:24;;;;;;;18.08;9.18;;;;;;;;;;5067292;27;98838;-74
2024/01/29 14:14:51;;;;;;;13.65;8.95;;;;;;;;;;5066310;27;99579;-74
2024/01/29 14:17:17;;;;;;;10.68;8.02;;;;;;;;;;5065854;27;99825;-75
2024/01/29 14:19:44;;;;;;;10.18;7.85;;;;;;;;;;5067089;27;98484;-75
2024/01/29 14:22:10;;;;;;;13.70;9.05;;;;;;;;;;5070030;27;99712;-75
2024/01/29 14:24:37;;;;;;;12.55;8.98;;;;;;;;;;5066608;27;98794;-74
2024/01/29 14:27:04;;;;;;;12.32;8.20;;;;;;;;;;5066660;27;99650;-74
2024/01/29 14:29:30;;;;;;;12.70;7.95;;;;;;;;;;5066315;27;98436;-76
2024/01/29 14:31:56;;;;;;;13.13;8.23;;;;;;;;;;5065715;27;98258;-76
2024/01/29 14:34:23;;;;;;;8.15;7.28;;;;;;;;;;5067149;27;99731;-76